createdAt,value
2023-07-31T00:01:58.989Z,19.26
2023-07-31T00:04:30.728Z,19.26
2023-07-31T00:07:05.278Z,19.25
2023-07-31T00:09:37.126Z,19.26
2023-07-31T00:12:10.249Z,19.26
2023-07-31T00:14:41.951Z,19.26
2023-07-31T00:17:13.646Z,19.24
2023-07-31T00:19:47.189Z,19.23
2023-07-31T00:22:18.893Z,19.21
2023-07-31T00:24:50.573Z,19.19
2023-07-31T00:27:22.289Z,19.17
2023-07-31T00:29:54.046Z,19.13
2023-07-31T00:32:25.755Z,19.10
2023-07-31T00:34:57.570Z,19.06
2023-07-31T00:37:29.279Z,19.02
2023-07-31T00:40:01.537Z,18.99
2023-07-31T00:42:33.489Z,18.97
2023-07-31T00:45:05.852Z,18.93
2023-07-31T00:47:37.616Z,18.89
2023-07-31T00:50:11.096Z,18.85
2023-07-31T00:52:42.796Z,18.83
2023-07-31T00:55:14.656Z,18.80
2023-07-31T00:57:47.180Z,18.76
2023-07-31T01:00:18.969Z,18.72
2023-07-31T01:02:51.477Z,18.71
2023-07-31T01:05:31.596Z,18.68
2023-07-31T01:08:13.301Z,18.66
2023-07-31T01:10:52.759Z,18.62
2023-07-31T01:13:25.474Z,18.60
2023-07-31T01:15:57.194Z,18.57
2023-07-31T01:18:28.965Z,18.55
2023-07-31T01:21:08.965Z,18.51
2023-07-31T01:24:02.742Z,18.47
2023-07-31T01:26:38.589Z,18.44
2023-07-31T01:29:19.518Z,18.40
2023-07-31T01:31:52.221Z,18.39
2023-07-31T01:34:25.424Z,18.37
2023-07-31T01:36:57.642Z,18.36
2023-07-31T01:39:29.359Z,18.35
2023-07-31T01:42:01.070Z,18.33
2023-07-31T01:44:33.872Z,18.30
2023-07-31T01:47:05.972Z,18.26
2023-07-31T01:49:37.692Z,18.23
2023-07-31T01:52:10.314Z,18.18
2023-07-31T01:54:42.019Z,18.14
2023-07-31T01:57:13.760Z,18.11
2023-07-31T01:59:45.485Z,18.08
2023-07-31T02:02:17.165Z,18.07
2023-07-31T02:04:49.241Z,18.05
2023-07-31T02:07:20.938Z,18.02
2023-07-31T02:09:52.613Z,17.99
2023-07-31T02:12:24.406Z,17.96
2023-07-31T02:14:56.083Z,17.95
2023-07-31T02:17:27.873Z,17.95
2023-07-31T02:19:59.558Z,17.96
2023-07-31T02:22:31.198Z,17.96
2023-07-31T02:25:02.882Z,17.96
2023-07-31T02:27:34.555Z,17.96
2023-07-31T02:30:06.836Z,17.97
2023-07-31T02:32:38.625Z,17.96
2023-07-31T02:35:11.181Z,17.95
2023-07-31T02:37:43.084Z,17.94
2023-07-31T02:40:15.738Z,17.94
2023-07-31T02:42:47.408Z,17.96
2023-07-31T02:45:19.239Z,17.97
2023-07-31T02:47:50.936Z,18.00
2023-07-31T02:50:22.830Z,18.02
2023-07-31T02:52:54.518Z,18.04
2023-07-31T02:55:26.286Z,18.07
2023-07-31T02:57:59.337Z,18.10
2023-07-31T03:00:31.148Z,18.13
2023-07-31T03:03:02.926Z,18.17
2023-07-31T03:05:34.812Z,18.20
2023-07-31T03:08:06.854Z,18.23
2023-07-31T03:10:38.540Z,18.24
2023-07-31T03:13:10.300Z,18.26
2023-07-31T03:15:43.966Z,18.28
2023-07-31T03:18:15.771Z,18.29
2023-07-31T03:20:47.637Z,18.29
2023-07-31T03:23:19.321Z,18.29
2023-07-31T03:26:01.944Z,18.29
2023-07-31T03:28:32.209Z,18.29
2023-07-31T03:31:04.133Z,18.26
2023-07-31T03:33:35.843Z,18.25
2023-07-31T03:36:08.687Z,18.25
2023-07-31T03:38:40.363Z,18.25
2023-07-31T03:41:12.573Z,18.25
2023-07-31T03:43:44.224Z,18.27
2023-07-31T03:46:15.946Z,18.28
2023-07-31T03:48:47.788Z,18.28
2023-07-31T03:51:19.824Z,18.30
2023-07-31T03:53:51.489Z,18.32
2023-07-31T03:56:24.767Z,18.35
2023-07-31T03:58:56.486Z,18.37
2023-07-31T04:01:28.374Z,18.39
2023-07-31T04:04:00.179Z,18.42
2023-07-31T04:06:31.869Z,18.46
2023-07-31T04:09:03.924Z,18.49
2023-07-31T04:11:35.634Z,18.52
2023-07-31T04:14:07.286Z,18.53
2023-07-31T04:16:39.182Z,18.56
2023-07-31T04:19:11.785Z,18.60
2023-07-31T04:21:43.471Z,18.65
2023-07-31T04:24:15.197Z,18.70
2023-07-31T04:26:46.877Z,18.74
2023-07-31T04:29:18.626Z,18.77
2023-07-31T04:31:51.371Z,18.84
2023-07-31T04:34:23.042Z,18.89
2023-07-31T04:36:54.744Z,18.97
2023-07-31T04:39:26.436Z,19.06
2023-07-31T04:41:58.150Z,19.17
2023-07-31T04:44:29.848Z,19.28
2023-07-31T04:47:03.035Z,19.41
2023-07-31T04:49:35.098Z,19.50
2023-07-31T04:52:07.983Z,19.55
2023-07-31T04:54:39.669Z,19.60
2023-07-31T04:57:11.916Z,19.67
2023-07-31T04:59:43.606Z,19.75
2023-07-31T05:02:15.450Z,19.81
2023-07-31T05:04:47.211Z,19.84
2023-07-31T05:07:19.047Z,19.86
2023-07-31T05:09:50.736Z,19.90
2023-07-31T05:12:22.441Z,19.95
2023-07-31T05:14:54.059Z,19.97
2023-07-31T05:17:25.766Z,19.96
2023-07-31T05:19:57.451Z,19.97
2023-07-31T05:22:29.113Z,19.94
2023-07-31T05:25:00.935Z,19.96
2023-07-31T05:27:33.441Z,20.03
2023-07-31T05:30:05.437Z,20.10
2023-07-31T05:32:37.267Z,20.14
2023-07-31T05:35:10.171Z,20.16
2023-07-31T05:37:41.881Z,20.18
2023-07-31T05:40:14.364Z,20.21
2023-07-31T05:42:46.146Z,20.36
2023-07-31T05:45:17.935Z,20.61
2023-07-31T05:47:49.700Z,20.96
2023-07-31T05:50:21.497Z,21.14
2023-07-31T05:52:53.228Z,21.26
2023-07-31T05:55:25.070Z,21.43
2023-07-31T05:57:58.074Z,21.53
2023-07-31T06:00:31.397Z,21.80
2023-07-31T06:03:03.200Z,22.07
2023-07-31T06:05:35.152Z,22.22
2023-07-31T06:08:07.179Z,22.16
2023-07-31T06:10:38.928Z,22.23
2023-07-31T06:13:10.709Z,22.74
2023-07-31T06:15:42.467Z,23.62
2023-07-31T06:18:14.208Z,24.09
2023-07-31T06:20:45.963Z,24.77
2023-07-31T06:23:19.753Z,25.73
2023-07-31T06:25:51.579Z,26.48
2023-07-31T06:28:23.575Z,27.14
2023-07-31T06:30:55.330Z,27.48
2023-07-31T06:33:27.355Z,27.62
2023-07-31T06:35:59.080Z,27.80
2023-07-31T06:38:30.991Z,28.55
2023-07-31T06:41:02.886Z,29.63
2023-07-31T06:43:34.649Z,31.03
2023-07-31T06:46:09.987Z,32.22
2023-07-31T06:48:41.748Z,32.92
2023-07-31T06:51:13.482Z,33.17
2023-07-31T06:53:46.318Z,33.07
2023-07-31T06:56:18.164Z,33.74
2023-07-31T06:58:49.804Z,34.39
2023-07-31T07:01:21.610Z,35.58
2023-07-31T07:03:53.408Z,36.65
2023-07-31T07:06:25.696Z,37.51
2023-07-31T07:08:57.477Z,38.25
2023-07-31T07:11:29.344Z,39.25
2023-07-31T07:14:01.640Z,39.54
2023-07-31T07:16:33.406Z,38.10
2023-07-31T07:19:05.577Z,36.59
2023-07-31T07:21:37.415Z,35.38
2023-07-31T07:24:09.477Z,34.40
2023-07-31T07:26:41.515Z,33.38
2023-07-31T07:29:13.518Z,32.51
2023-07-31T07:31:45.297Z,31.72
2023-07-31T07:34:16.992Z,31.02
2023-07-31T07:36:48.720Z,30.34
2023-07-31T07:39:20.407Z,29.70
2023-07-31T07:41:52.150Z,29.17
2023-07-31T07:44:23.906Z,28.77
2023-07-31T07:46:55.574Z,28.40
2023-07-31T07:49:27.390Z,27.98
2023-07-31T07:51:59.093Z,27.61
2023-07-31T07:54:30.818Z,27.35
2023-07-31T07:57:02.846Z,27.21
2023-07-31T07:59:34.589Z,27.04
2023-07-31T08:02:06.591Z,26.89
2023-07-31T08:04:38.228Z,26.78
2023-07-31T08:07:10.058Z,26.60
2023-07-31T08:09:42.187Z,26.54
2023-07-31T08:12:13.860Z,26.62
2023-07-31T08:14:45.572Z,26.58
2023-07-31T08:17:17.300Z,26.49
2023-07-31T08:19:49.155Z,26.41
2023-07-31T08:22:20.910Z,26.24
2023-07-31T08:24:52.687Z,26.15
2023-07-31T08:27:24.578Z,26.24
2023-07-31T08:29:56.894Z,26.26
2023-07-31T08:32:28.692Z,26.24
2023-07-31T08:35:00.424Z,26.26
2023-07-31T08:37:32.168Z,26.29
2023-07-31T08:40:08.011Z,26.34
2023-07-31T08:42:47.423Z,26.44
2023-07-31T08:45:20.638Z,26.61
2023-07-31T08:47:54.419Z,26.63
2023-07-31T08:50:26.276Z,26.60
2023-07-31T08:52:59.053Z,26.61
2023-07-31T08:55:33.231Z,26.63
2023-07-31T08:58:06.863Z,26.55
2023-07-31T09:00:40.142Z,26.52
2023-07-31T09:03:15.581Z,26.56
2023-07-31T09:05:48.872Z,26.56
2023-07-31T09:08:22.881Z,26.55
2023-07-31T09:10:55.887Z,26.76
2023-07-31T09:13:27.729Z,26.90
2023-07-31T09:15:59.607Z,26.85
2023-07-31T09:18:31.374Z,26.91
2023-07-31T09:21:08.150Z,26.80
2023-07-31T09:23:49.024Z,26.75
2023-07-31T09:26:34.864Z,26.82
2023-07-31T09:29:09.367Z,26.87
2023-07-31T09:31:46.324Z,26.88
2023-07-31T09:34:18.545Z,26.94
2023-07-31T09:36:54.596Z,26.94
2023-07-31T09:39:26.321Z,26.99
2023-07-31T09:41:59.383Z,27.11
2023-07-31T09:44:43.170Z,27.30
2023-07-31T09:47:26.685Z,27.42
2023-07-31T09:49:58.846Z,27.59
2023-07-31T09:52:30.939Z,27.75
2023-07-31T09:55:02.753Z,27.79
2023-07-31T09:57:35.311Z,27.75
2023-07-31T10:00:10.406Z,27.74
2023-07-31T10:02:43.304Z,27.67
2023-07-31T10:05:17.056Z,27.63
2023-07-31T10:07:53.673Z,27.76
2023-07-31T10:10:27.181Z,27.89
2023-07-31T10:13:01.143Z,27.95
2023-07-31T10:15:34.009Z,27.92
2023-07-31T10:18:07.895Z,27.68
2023-07-31T10:20:40.302Z,27.44
2023-07-31T10:23:12.793Z,27.33
2023-07-31T10:25:46.140Z,27.45
2023-07-31T10:28:18.023Z,27.43
2023-07-31T10:30:51.931Z,27.32
2023-07-31T10:33:23.942Z,27.37
2023-07-31T10:36:17.859Z,27.37
2023-07-31T10:38:52.823Z,27.29
2023-07-31T10:41:32.276Z,27.24
2023-07-31T10:44:04.770Z,27.30
2023-07-31T10:46:36.581Z,27.50
2023-07-31T10:49:08.303Z,27.69
2023-07-31T10:51:42.768Z,27.66
2023-07-31T10:54:20.312Z,27.58
2023-07-31T10:56:54.178Z,27.59
2023-07-31T10:59:36.619Z,27.70
2023-07-31T11:02:25.686Z,27.81
2023-07-31T11:05:13.730Z,27.98
2023-07-31T11:07:52.084Z,28.13
2023-07-31T11:10:26.816Z,28.24
2023-07-31T11:12:58.582Z,28.28
2023-07-31T11:15:31.748Z,28.34
2023-07-31T11:18:06.437Z,28.37
2023-07-31T11:20:39.895Z,28.40
2023-07-31T11:23:13.448Z,28.49
2023-07-31T11:25:45.687Z,28.47
2023-07-31T11:28:18.559Z,28.52
2023-07-31T11:30:50.542Z,28.65
2023-07-31T11:33:22.320Z,28.60
2023-07-31T11:35:54.436Z,28.50
2023-07-31T11:38:27.764Z,28.62
2023-07-31T11:41:03.438Z,28.79
2023-07-31T11:43:37.656Z,28.89
2023-07-31T11:46:09.418Z,28.86
2023-07-31T11:48:41.871Z,28.98
2023-07-31T11:51:16.376Z,28.96
2023-07-31T11:53:52.481Z,29.06
2023-07-31T11:56:23.276Z,29.10
2023-07-31T11:58:57.326Z,29.16
2023-07-31T12:01:30.200Z,29.17
2023-07-31T12:04:02.253Z,29.10
2023-07-31T12:06:40.234Z,29.03
2023-07-31T12:09:12.227Z,28.94
2023-07-31T12:11:50.655Z,28.87
2023-07-31T12:14:29.681Z,28.81
2023-07-31T12:17:03.475Z,28.86
2023-07-31T12:19:36.226Z,28.85
2023-07-31T12:22:15.285Z,28.77
2023-07-31T12:24:47.742Z,28.70
2023-07-31T12:27:19.779Z,28.61
2023-07-31T12:29:51.460Z,28.65
2023-07-31T12:32:25.155Z,28.67
2023-07-31T12:34:56.925Z,28.64
2023-07-31T12:37:28.943Z,28.59
2023-07-31T12:40:08.604Z,28.62
2023-07-31T12:42:40.711Z,28.68
2023-07-31T12:45:13.037Z,28.71
2023-07-31T12:47:44.761Z,28.69
2023-07-31T12:50:16.521Z,28.64
2023-07-31T12:52:48.266Z,28.57
2023-07-31T12:55:20.417Z,28.51
2023-07-31T12:57:52.556Z,28.47
2023-07-31T13:00:27.359Z,28.40
2023-07-31T13:02:59.430Z,28.31
2023-07-31T13:05:31.556Z,28.31
2023-07-31T13:08:03.226Z,28.33
2023-07-31T13:10:35.007Z,28.30
2023-07-31T13:13:06.703Z,28.30
2023-07-31T13:15:38.491Z,28.22
2023-07-31T13:18:10.221Z,28.06
2023-07-31T13:20:41.907Z,27.98
2023-07-31T13:23:13.658Z,27.99
2023-07-31T13:25:45.478Z,28.00
2023-07-31T13:28:17.349Z,28.03
2023-07-31T13:30:49.022Z,28.04
2023-07-31T13:33:35.555Z,28.11
2023-07-31T13:36:08.533Z,28.14
2023-07-31T13:38:40.183Z,28.17
2023-07-31T13:41:11.858Z,28.18
2023-07-31T13:43:43.566Z,28.18
2023-07-31T13:46:15.325Z,28.28
2023-07-31T13:48:47.077Z,28.31
2023-07-31T13:51:18.788Z,28.30
2023-07-31T13:53:50.476Z,28.19
2023-07-31T13:56:22.142Z,28.09
2023-07-31T13:58:54.217Z,28.03
2023-07-31T14:01:26.335Z,27.94
2023-07-31T14:03:58.151Z,27.90
2023-07-31T14:06:29.950Z,27.92
2023-07-31T14:09:01.617Z,27.89
2023-07-31T14:11:34.450Z,27.82
2023-07-31T14:14:06.727Z,27.81
2023-07-31T14:16:38.954Z,27.84
2023-07-31T14:19:11.285Z,27.84
2023-07-31T14:21:43.686Z,27.80
2023-07-31T14:24:17.379Z,27.70
2023-07-31T14:26:49.347Z,27.66
2023-07-31T14:29:21.071Z,27.67
2023-07-31T14:31:52.836Z,27.69
2023-07-31T14:34:24.556Z,27.65
2023-07-31T14:36:56.331Z,27.57
2023-07-31T14:39:28.005Z,27.49
2023-07-31T14:44:39.211Z,27.35
2023-07-31T14:47:11.122Z,27.21
2023-07-31T14:49:42.837Z,27.07
2023-07-31T14:52:14.601Z,26.92
2023-07-31T14:54:47.617Z,26.76
2023-07-31T14:57:19.446Z,26.58
2023-07-31T14:59:51.095Z,26.44
2023-07-31T15:02:23.431Z,26.34
2023-07-31T15:04:55.128Z,26.27
2023-07-31T15:07:26.919Z,26.22
2023-07-31T15:09:58.616Z,26.17
2023-07-31T15:12:30.964Z,26.12
2023-07-31T15:15:02.729Z,26.08
2023-07-31T15:17:34.542Z,26.05
2023-07-31T15:20:07.682Z,26.08
2023-07-31T15:22:39.415Z,26.12
2023-07-31T15:25:12.305Z,26.19
2023-07-31T15:27:43.979Z,26.28
2023-07-31T15:30:15.836Z,26.40
2023-07-31T15:32:49.760Z,26.52
2023-07-31T15:35:22.783Z,26.65
2023-07-31T15:37:54.640Z,26.72
2023-07-31T15:40:26.304Z,26.70
2023-07-31T15:42:58.049Z,26.65
2023-07-31T15:45:29.771Z,26.58
2023-07-31T15:48:01.493Z,26.51
2023-07-31T15:50:33.254Z,26.43
2023-07-31T15:53:05.010Z,26.33
2023-07-31T15:55:36.835Z,26.29
2023-07-31T15:58:08.581Z,26.27
2023-07-31T16:00:40.335Z,26.22
2023-07-31T16:03:34.750Z,26.18
2023-07-31T16:06:06.598Z,26.09
2023-07-31T16:08:42.064Z,26.04
2023-07-31T16:11:13.962Z,25.97
2023-07-31T16:13:45.713Z,25.94
2023-07-31T16:16:17.519Z,25.87
2023-07-31T16:18:49.327Z,25.84
2023-07-31T16:21:21.187Z,25.85
2023-07-31T16:23:52.935Z,25.88
2023-07-31T16:26:24.641Z,25.93
2023-07-31T16:28:56.324Z,25.92
2023-07-31T16:31:31.161Z,25.87
2023-07-31T16:34:06.674Z,25.83
2023-07-31T16:36:38.619Z,25.81
2023-07-31T16:39:10.504Z,25.80
2023-07-31T16:41:42.507Z,25.77
2023-07-31T16:44:17.425Z,25.70
2023-07-31T16:46:49.397Z,25.62
2023-07-31T16:49:21.161Z,25.54
2023-07-31T16:51:53.499Z,25.45
2023-07-31T16:54:25.191Z,25.37
2023-07-31T16:57:00.135Z,25.33
2023-07-31T16:59:32.593Z,25.31
2023-07-31T17:02:04.529Z,25.28
2023-07-31T17:04:36.681Z,25.26
2023-07-31T17:07:08.579Z,25.23
2023-07-31T17:09:40.360Z,25.18
2023-07-31T17:12:12.441Z,25.13
2023-07-31T17:14:44.242Z,25.10
2023-07-31T17:17:15.912Z,25.06
2023-07-31T17:19:47.619Z,24.97
2023-07-31T17:22:19.327Z,24.89
2023-07-31T17:24:51.009Z,24.82
2023-07-31T17:27:24.506Z,24.77
2023-07-31T17:29:57.424Z,24.73
2023-07-31T17:32:29.144Z,24.68
2023-07-31T17:35:00.850Z,24.61
2023-07-31T17:37:32.548Z,24.54
2023-07-31T17:40:04.997Z,24.50
2023-07-31T17:42:36.743Z,24.45
2023-07-31T17:45:10.304Z,24.40
2023-07-31T17:47:41.973Z,24.36
2023-07-31T17:50:13.994Z,24.30
2023-07-31T17:52:45.678Z,24.25
2023-07-31T17:55:17.528Z,24.20
2023-07-31T17:57:49.212Z,24.15
2023-07-31T18:00:23.574Z,24.09
2023-07-31T18:02:55.408Z,24.02
2023-07-31T18:05:27.210Z,23.94
2023-07-31T18:07:58.952Z,23.88
2023-07-31T18:10:30.674Z,23.81
2023-07-31T18:13:02.544Z,23.75
2023-07-31T18:15:34.289Z,23.68
2023-07-31T18:18:06.152Z,23.61
2023-07-31T18:20:40.368Z,23.54
2023-07-31T18:23:12.107Z,23.47
2023-07-31T18:25:44.823Z,23.40
2023-07-31T18:28:16.605Z,23.33
2023-07-31T18:30:48.374Z,23.27
2023-07-31T18:33:20.069Z,23.20
2023-07-31T18:35:51.805Z,23.14
2023-07-31T18:38:23.501Z,23.07
2023-07-31T18:40:55.169Z,23.00
2023-07-31T18:43:26.938Z,22.94
2023-07-31T18:45:58.651Z,22.89
2023-07-31T18:48:31.725Z,22.82
2023-07-31T18:51:03.693Z,22.76
2023-07-31T18:53:35.367Z,22.70
2023-07-31T18:56:07.473Z,22.63
2023-07-31T18:58:39.211Z,22.56
2023-07-31T19:01:10.948Z,22.51
2023-07-31T19:03:42.668Z,22.44
2023-07-31T19:06:14.438Z,22.37
2023-07-31T19:08:46.417Z,22.31
2023-07-31T19:11:31.256Z,22.24
2023-07-31T19:14:04.709Z,22.19
2023-07-31T19:16:36.524Z,22.14
2023-07-31T19:19:08.320Z,22.08
2023-07-31T19:21:40.047Z,22.00
2023-07-31T19:24:11.763Z,21.92
2023-07-31T19:26:44.638Z,21.84
2023-07-31T19:29:16.345Z,21.77
2023-07-31T19:31:48.058Z,21.70
2023-07-31T19:34:19.773Z,21.61
2023-07-31T19:36:51.477Z,21.54
2023-07-31T19:39:23.174Z,21.47
2023-07-31T19:41:54.837Z,21.41
2023-07-31T19:44:26.633Z,21.33
2023-07-31T19:46:58.291Z,21.27
2023-07-31T19:49:30.717Z,21.20
2023-07-31T19:52:02.369Z,21.14
2023-07-31T19:54:34.120Z,21.07
2023-07-31T19:57:06.498Z,20.99
2023-07-31T19:59:38.199Z,20.96
2023-07-31T20:02:10.180Z,20.90
2023-07-31T20:04:41.936Z,20.85
2023-07-31T20:07:13.688Z,20.79
2023-07-31T20:09:45.453Z,20.74
2023-07-31T20:12:17.223Z,20.69
2023-07-31T20:14:49.986Z,20.65
2023-07-31T20:17:21.773Z,20.62
2023-07-31T20:19:53.448Z,20.59
2023-07-31T20:22:25.355Z,20.56
2023-07-31T20:24:57.104Z,20.53
2023-07-31T20:27:28.764Z,20.47
2023-07-31T20:30:00.729Z,20.43
2023-07-31T20:32:32.634Z,20.38
2023-07-31T20:35:04.769Z,20.34
2023-07-31T20:37:36.483Z,20.31
2023-07-31T20:40:11.251Z,20.27
2023-07-31T20:42:42.953Z,20.21
2023-07-31T20:45:15.502Z,20.15
2023-07-31T20:47:47.503Z,20.10
2023-07-31T20:50:19.436Z,20.03
2023-07-31T20:52:51.229Z,19.95
2023-07-31T20:55:22.948Z,19.88
2023-07-31T20:57:55.916Z,19.86
2023-07-31T21:00:27.845Z,19.82
2023-07-31T21:02:59.723Z,19.78
2023-07-31T21:05:31.551Z,19.74
2023-07-31T21:08:04.052Z,19.71
2023-07-31T21:10:39.725Z,19.69
2023-07-31T21:13:11.479Z,19.68
2023-07-31T21:15:48.201Z,19.64
2023-07-31T21:18:20.005Z,19.59
2023-07-31T21:20:51.814Z,19.54
2023-07-31T21:23:23.505Z,19.51
2023-07-31T21:25:55.470Z,19.50
2023-07-31T21:28:27.239Z,19.47
2023-07-31T21:30:58.947Z,19.42
2023-07-31T21:33:32.946Z,19.42
2023-07-31T21:36:05.187Z,19.40
2023-07-31T21:38:36.977Z,19.38
2023-07-31T21:41:08.648Z,19.37
2023-07-31T21:43:40.314Z,19.34
2023-07-31T21:46:12.057Z,19.31
2023-07-31T21:48:43.777Z,19.28
2023-07-31T21:51:15.472Z,19.26
2023-07-31T21:53:47.226Z,19.25
2023-07-31T21:56:19.019Z,19.26
2023-07-31T21:58:50.672Z,19.26
2023-07-31T22:01:22.507Z,19.27
2023-07-31T22:03:54.249Z,19.27
2023-07-31T22:06:26.023Z,19.27
2023-07-31T22:08:57.732Z,19.26
2023-07-31T22:11:29.484Z,19.26
2023-07-31T22:14:01.397Z,19.26
2023-07-31T22:16:34.616Z,19.25
2023-07-31T22:19:06.439Z,19.25
2023-07-31T22:21:38.559Z,19.24
2023-07-31T22:24:10.226Z,19.24
2023-07-31T22:26:42.172Z,19.26
2023-07-31T22:29:14.760Z,19.28
2023-07-31T22:31:46.465Z,19.30
2023-07-31T22:34:18.215Z,19.31
2023-07-31T22:36:49.952Z,19.31
2023-07-31T22:39:21.699Z,19.31
2023-07-31T22:41:53.420Z,19.31
2023-07-31T22:44:25.296Z,19.32
2023-07-31T22:46:56.987Z,19.33
2023-07-31T22:49:28.677Z,19.34
2023-07-31T22:52:00.535Z,19.35
2023-07-31T22:54:32.269Z,19.37
2023-07-31T22:57:04.128Z,19.40
2023-07-31T22:59:36.035Z,19.40
2023-07-31T23:02:09.679Z,19.42
2023-07-31T23:04:42.189Z,19.45
2023-07-31T23:07:13.906Z,19.48
2023-07-31T23:09:45.541Z,19.51
2023-07-31T23:12:17.208Z,19.52
2023-07-31T23:14:48.987Z,19.53
2023-07-31T23:17:20.687Z,19.54
2023-07-31T23:19:52.380Z,19.55
2023-07-31T23:22:24.074Z,19.56
2023-07-31T23:24:56.903Z,19.57
2023-07-31T23:27:28.650Z,19.59
2023-07-31T23:30:00.634Z,19.60
2023-07-31T23:32:32.688Z,19.60
2023-07-31T23:35:04.747Z,19.61
2023-07-31T23:37:36.419Z,19.58
2023-07-31T23:40:09.970Z,19.56
2023-07-31T23:42:41.910Z,19.52
2023-07-31T23:45:16.262Z,19.49
2023-07-31T23:47:48.010Z,19.46
2023-07-31T23:50:19.929Z,19.45
2023-07-31T23:52:51.755Z,19.44
2023-07-31T23:55:23.626Z,19.42
2023-07-31T23:57:55.845Z,19.41
